Terminal Aerodrome Forecast
Issued by NWS Charleston, WV

Current Version | Previous Version | Text Only | Print | Product List | Glossary Off
Versions: 1 2 3 4 5 6 7 8 9 10 11 12 13 14 15 16 17 18 19 20 21 22 23 24

000
FTUS41 KRLX 280528
TAFPKB
TAF
KPKB 280528Z 2806/2906 00000KT P6SM SKC
     FM280800 00000KT 3SM BR SCT250
     FM280900 00000KT 1/4SM FG VV001
     FM281300 00000KT P6SM SCT250=

USA.gov is the U.S. government's official web portal to all federal, state and local government web resources and services.